Woolwine, Virginia
Current Conditions -  °F | °C
As of 5:35 AM on Monday 22 Dec 2014 (Local Time) from KMTV Reporting Station
Light Rain Light Rain  
Wind Chill: 31°   Ceiling: 2400
Heat Index: 36°   Visibility: 10mi
Dew Point: 35°   Wind: 6mph
Humidity: 94%   Direction: 40°NE
Pressure: 30.2"   Gusts: NA
Location:  36.79°N, 80.28°W
Report Text: KMTV 221035Z AUTO 04005KT 10SM -RA OVC024 02/02 A3020 RMK AO2 P0001 T00230015
Loading
Personal Weather Stations






























Interactive Weather Map New forecast layout! Learn more

10-Day Weather Forecast

Advertisements
Track Severe Weather on mobile